METAR Data
IDs: Format: Raw Decoded Include TAF

Data at: 0241 UTC 19 Oct 2021

SUAA 182200Z 14007KT CAVOK 14/06 Q1021